Terminal Aerodrome Forecast
Issued by NWS North Platte, NE

Home | Current Version | Previous Version | Text Only | Print | Product List | Glossary Off
Versions: 1 2 3 4 5 6 7 8 9 10 11 12 13

000
FTUS43 KLBF 201720
TAFVTN
TAF
KVTN 201720Z 2018/2118 34016G23KT P6SM SCT045
     FM210100 02007KT P6SM BKN200
     FM210700 09006KT P6SM SCT070 OVC150
     FM211000 11007KT P6SM SCT025 BKN050
      TEMPO 2112/2116 P6SM OVC025=

USA.gov is the U.S. government's official web portal to all federal, state and local government web resources and services.